Time;durP1;ratioP1;P1;durP2;ratioP2;P2;SDS_P1;SDS_P2;PMS_P1;PMS_P2;Temp;Humidity;BMP_temperature;BMP_pressure;BME280_temperature;BME280_humidity;BME280_pressure;Samples;Min_cycle;Max_cycle;Signal;HPM_P1;HPM_P2
2021/11/04 00:00:43;;;;;;;11.30;6.63;;;5.50;97.10;;;;;;6247413;23;20388;-78
2021/11/04 00:03:09;;;;;;;13.02;7.32;;;5.60;97.80;;;;;;6248299;23;20011;-77
2021/11/04 00:05:35;;;;;;;10.10;6.72;;;5.60;98.00;;;;;;6248060;23;19996;-77
2021/11/04 00:08:04;;;;;;;11.88;6.40;;;5.50;97.90;;;;;;6247982;23;20047;-77
2021/11/04 00:10:32;;;;;;;15.38;8.00;;;5.50;97.70;;;;;;6246614;23;20634;-77
2021/11/04 00:12:58;;;;;;;16.23;10.40;;;5.50;97.60;;;;;;6248201;23;20087;-78
2021/11/04 00:15:24;;;;;;;26.73;14.32;;;5.40;97.70;;;;;;6247277;23;20028;-79
2021/11/04 00:17:49;;;;;;;20.33;11.35;;;5.40;97.50;;;;;;6221349;23;20018;-78
2021/11/04 00:20:17;;;;;;;16.73;10.00;;;5.40;97.40;;;;;;6221483;23;20255;-78
2021/11/04 00:22:44;;;;;;;15.88;9.73;;;5.50;96.80;;;;;;6248075;23;20007;-78
2021/11/04 00:25:10;;;;;;;13.65;9.10;;;5.50;97.60;;;;;;6247851;23;20010;-79
2021/11/04 00:27:36;;;;;;;8.07;4.95;;;5.50;97.50;;;;;;6220556;23;20083;-79
2021/11/04 00:30:04;;;;;;;9.43;6.18;;;5.50;98.00;;;;;;6247634;23;20028;-77
2021/11/04 00:32:30;;;;;;;8.60;5.20;;;5.50;98.00;;;;;;6219613;23;20053;-79
2021/11/04 00:34:55;;;;;;;7.65;4.78;;;5.50;98.00;;;;;;6222182;23;20039;-77
2021/11/04 00:37:21;;;;;;;6.88;4.38;;;5.40;98.00;;;;;;6222391;23;20016;-80
2021/11/04 00:39:47;;;;;;;8.23;4.75;;;5.50;98.00;;;;;;6248936;23;19996;-79
2021/11/04 00:42:13;;;;;;;6.07;3.67;;;5.50;98.00;;;;;;6220974;23;20087;-78
2021/11/04 00:44:40;;;;;;;4.65;2.38;;;5.50;98.00;;;;;;6248637;23;20091;-78
2021/11/04 00:47:06;;;;;;;3.83;2.15;;;5.50;98.00;;;;;;6245101;23;20096;-80
2021/11/04 00:49:31;;;;;;;4.22;2.33;;;5.50;98.00;;;;;;6219930;23;20031;-79
2021/11/04 00:51:57;;;;;;;4.13;2.22;;;5.50;98.00;;;;;;6246215;23;20000;-77
2021/11/04 00:54:23;;;;;;;3.35;1.90;;;5.60;98.00;;;;;;6220434;23;20077;-78
2021/11/04 00:56:49;;;;;;;2.70;1.52;;;5.60;98.00;;;;;;6244549;23;20061;-77
2021/11/04 00:59:14;;;;;;;3.78;1.95;;;5.60;98.00;;;;;;6219521;23;20036;-78
2021/11/04 01:01:40;;;;;;;3.95;2.10;;;5.60;98.00;;;;;;6245347;23;20004;-78
2021/11/04 01:04:06;;;;;;;4.03;2.38;;;5.60;98.00;;;;;;6245318;23;20297;-78
2021/11/04 01:06:32;;;;;;;3.58;2.10;;;5.70;98.00;;;;;;6245535;22;20016;-80
2021/11/04 01:08:57;;;;;;;6.22;3.00;;;5.70;98.00;;;;;;6246807;23;20083;-79
2021/11/04 01:11:24;;;;;;;7.10;4.10;;;5.70;98.00;;;;;;6244770;23;20024;-79
2021/11/04 01:13:51;;;;;;;7.60;4.70;;;5.70;98.00;;;;;;6245670;23;20001;-78
2021/11/04 01:16:17;;;;;;;8.45;5.50;;;5.60;98.00;;;;;;6245116;23;20034;-78
2021/11/04 01:18:43;;;;;;;7.90;5.22;;;5.60;98.00;;;;;;6218531;23;20016;-78
2021/11/04 01:21:09;;;;;;;8.27;5.43;;;5.60;98.00;;;;;;6246549;23;20095;-80
2021/11/04 01:23:36;;;;;;;7.82;4.70;;;5.50;98.00;;;;;;6247013;23;20004;-79
2021/11/04 01:26:01;;;;;;;6.18;3.90;;;5.40;98.00;;;;;;6247474;23;20000;-78
2021/11/04 01:28:27;;;;;;;6.93;4.68;;;5.40;98.00;;;;;;6245569;23;20027;-78
2021/11/04 01:30:53;;;;;;;7.63;4.35;;;5.40;98.00;;;;;;6246696;23;20008;-78
2021/11/04 01:33:18;;;;;;;7.43;4.50;;;5.30;98.00;;;;;;6245985;23;20027;-78
2021/11/04 01:35:44;;;;;;;7.30;4.47;;;5.30;98.00;;;;;;6246746;23;20377;-79
2021/11/04 01:38:10;;;;;;;7.25;4.45;;;5.20;98.00;;;;;;6246637;23;20000;-78
2021/11/04 01:40:36;;;;;;;8.68;4.82;;;5.20;98.00;;;;;;6245738;23;20034;-78
2021/11/04 01:43:04;;;;;;;7.75;4.85;;;5.10;98.00;;;;;;6245550;23;20011;-78
2021/11/04 01:45:30;;;;;;;9.23;5.60;;;5.10;98.00;;;;;;6245512;23;20008;-77
2021/11/04 01:47:56;;;;;;;10.05;5.40;;;5.10;98.00;;;;;;6218536;23;20455;-79
2021/11/04 01:50:23;;;;;;;7.82;5.20;;;5.10;98.00;;;;;;6246254;23;20000;-78
2021/11/04 01:52:49;;;;;;;7.78;4.97;;;5.10;98.00;;;;;;6220164;23;20131;-78
2021/11/04 01:55:24;;;;;;;9.90;3.97;;;5.10;98.00;;;;;;6244672;23;20378;-78
2021/11/04 01:57:50;;;;;;;5.38;3.20;;;5.00;98.00;;;;;;6219427;23;20065;-79
2021/11/04 02:00:22;;;;;;;5.22;3.08;;;4.80;98.00;;;;;;6246536;23;20008;-78
2021/11/04 02:03:01;;;;;;;4.65;3.00;;;4.70;98.00;;;;;;6246754;23;20000;-78
2021/11/04 02:05:39;;;;;;;5.20;3.22;;;4.60;98.00;;;;;;6219820;22;20008;-78
2021/11/04 02:08:18;;;;;;;7.47;3.88;;;4.50;98.00;;;;;;6220986;23;20012;-78
2021/11/04 02:10:50;;;;;;;6.07;3.53;;;4.50;98.00;;;;;;6247554;23;20004;-78
2021/11/04 02:13:30;;;;;;;5.50;3.15;;;4.40;98.00;;;;;;6247807;23;20054;-78
2021/11/04 02:15:59;;;;;;;4.18;2.45;;;4.30;97.90;;;;;;6248073;23;20338;-78
2021/11/04 02:18:29;;;;;;;3.80;2.35;;;4.20;97.80;;;;;;6246683;23;20027;-77
2021/11/04 02:21:19;;;;;;;4.22;2.45;;;4.10;98.00;;;;;;6246614;23;20282;-77
2021/11/04 02:23:56;;;;;;;3.90;2.20;;;4.00;98.00;;;;;;6248082;23;20000;-78
2021/11/04 02:26:22;;;;;;;3.40;1.90;;;4.00;98.00;;;;;;6219849;23;20278;-78
2021/11/04 02:28:48;;;;;;;4.10;2.30;;;3.90;98.00;;;;;;6221449;23;20004;-78
2021/11/04 02:31:15;;;;;;;3.97;2.28;;;3.90;98.00;;;;;;6248538;23;20000;-78
2021/11/04 02:33:42;;;;;;;3.90;2.33;;;3.90;98.00;;;;;;6248022;23;20008;-78
2021/11/04 02:36:09;;;;;;;4.40;2.70;;;3.90;98.00;;;;;;6248216;23;20365;-78
2021/11/04 02:38:35;;;;;;;4.40;2.53;;;3.80;98.00;;;;;;6247873;23;20004;-78
2021/11/04 02:41:02;;;;;;;4.60;2.97;;;3.80;98.00;;;;;;6246425;23;20617;-78
2021/11/04 02:43:31;;;;;;;3.97;2.33;;;3.80;98.00;;;;;;6247088;23;20130;-78
2021/11/04 02:45:58;;;;;;;3.90;2.40;;;3.80;98.00;;;;;;6220304;23;20078;-78
2021/11/04 02:48:25;;;;;;;4.25;2.47;;;3.80;98.00;;;;;;6246321;23;20585;-77
2021/11/04 02:50:52;;;;;;;3.88;2.35;;;3.80;98.00;;;;;;6219914;23;20370;-78
2021/11/04 02:53:19;;;;;;;4.03;2.60;;;3.80;98.00;;;;;;6219794;23;20000;-78
2021/11/04 02:55:45;;;;;;;4.85;2.05;;;3.70;98.00;;;;;;6244780;23;20000;-77
2021/11/04 02:58:12;;;;;;;3.47;2.08;;;3.70;98.00;;;;;;6247048;23;20000;-77
2021/11/04 03:00:44;;;;;;;3.38;2.22;;;3.70;98.00;;;;;;6246718;23;20022;-77
2021/11/04 03:03:10;;;;;;;3.58;2.10;;;3.70;98.00;;;;;;6219703;23;20039;-78
2021/11/04 03:05:36;;;;;;;3.15;1.85;;;3.60;98.00;;;;;;6246153;22;20035;-77
2021/11/04 03:08:02;;;;;;;3.65;2.10;;;3.60;98.00;;;;;;6246302;23;20354;-78
2021/11/04 03:10:27;;;;;;;6.20;2.13;;;3.60;98.00;;;;;;6246040;23;19996;-78
2021/11/04 03:12:53;;;;;;;5.18;2.00;;;3.60;98.00;;;;;;6246885;23;20008;-77
2021/11/04 03:15:21;;;;;;;4.65;2.30;;;3.60;98.00;;;;;;6247507;23;20067;-79
2021/11/04 03:17:50;;;;;;;3.70;2.30;;;3.60;98.00;;;;;;6246737;23;20004;-78
2021/11/04 03:20:18;;;;;;;3.72;2.20;;;3.50;98.00;;;;;;6247021;23;20047;-78
2021/11/04 03:22:45;;;;;;;4.20;2.45;;;3.50;98.00;;;;;;6247330;23;20004;-78
2021/11/04 03:25:17;;;;;;;3.85;2.33;;;3.50;98.00;;;;;;6219295;23;20011;-77
2021/11/04 03:27:45;;;;;;;4.63;2.63;;;3.50;98.00;;;;;;6221700;23;20034;-77
2021/11/04 03:30:13;;;;;;;5.07;3.10;;;3.50;98.00;;;;;;6249135;23;20389;-78
2021/11/04 03:32:39;;;;;;;4.90;2.80;;;3.40;98.00;;;;;;6246773;23;20079;-77
2021/11/04 03:35:09;;;;;;;4.40;2.80;;;3.40;98.00;;;;;;6246603;23;20087;-78
2021/11/04 03:37:39;;;;;;;5.47;3.00;;;3.40;98.00;;;;;;6246590;23;20012;-76
2021/11/04 03:40:06;;;;;;;4.55;2.72;;;3.40;98.00;;;;;;6220020;23;20000;-77
2021/11/04 03:42:32;;;;;;;5.03;3.28;;;3.40;98.00;;;;;;6246137;23;20050;-77
2021/11/04 03:45:00;;;;;;;4.57;3.00;;;3.40;98.00;;;;;;6220203;23;20000;-77
2021/11/04 03:47:29;;;;;;;5.00;3.17;;;3.40;98.00;;;;;;6220243;23;20381;-78
2021/11/04 03:49:56;;;;;;;5.80;3.40;;;3.40;98.00;;;;;;6247564;23;20269;-77
2021/11/04 03:52:22;;;;;;;5.65;3.55;;;3.40;98.00;;;;;;6219198;23;20008;-78
2021/11/04 03:54:49;;;;;;;5.88;3.50;;;3.40;98.00;;;;;;6219360;23;20008;-78
2021/11/04 03:57:16;;;;;;;5.50;3.47;;;3.40;98.00;;;;;;6245239;23;20001;-77
2021/11/04 03:59:42;;;;;;;5.63;3.50;;;3.40;98.00;;;;;;6219878;23;20004;-77
2021/11/04 04:02:08;;;;;;;6.07;3.65;;;3.40;98.00;;;;;;6246131;23;20082;-77
2021/11/04 04:04:34;;;;;;;6.10;4.00;;;3.40;98.00;;;;;;6246483;23;20003;-79
2021/11/04 04:07:00;;;;;;;6.22;3.75;;;3.40;98.00;;;;;;6247557;23;20008;-78
2021/11/04 04:09:26;;;;;;;6.05;4.03;;;3.40;98.00;;;;;;6220403;23;20392;-78
2021/11/04 04:11:53;;;;;;;6.13;3.80;;;3.40;98.00;;;;;;6245241;23;20000;-78
2021/11/04 04:14:19;;;;;;;6.07;3.65;;;3.40;98.00;;;;;;6220509;23;20027;-78
2021/11/04 04:16:45;;;;;;;7.35;4.35;;;3.40;98.00;;;;;;6219761;23;20000;-78
2021/11/04 04:19:11;;;;;;;6.00;4.05;;;3.50;98.00;;;;;;6220053;23;20012;-79
2021/11/04 04:21:37;;;;;;;6.82;4.28;;;3.50;98.00;;;;;;6246576;23;20004;-78
2021/11/04 04:24:03;;;;;;;7.10;4.40;;;3.50;98.00;;;;;;6220305;23;20031;-79
2021/11/04 04:26:29;;;;;;;6.40;4.05;;;3.50;98.00;;;;;;6245349;23;20011;-78
2021/11/04 04:28:55;;;;;;;6.93;4.22;;;3.50;98.00;;;;;;6220518;23;20004;-78
2021/11/04 04:31:21;;;;;;;5.88;3.67;;;3.50;98.00;;;;;;6221508;23;20083;-78
2021/11/04 04:33:46;;;;;;;6.93;4.53;;;3.50;98.00;;;;;;6248638;23;20030;-78
2021/11/04 04:36:12;;;;;;;6.32;3.92;;;3.50;98.00;;;;;;6245700;23;20000;-78
2021/11/04 04:38:38;;;;;;;5.47;3.65;;;3.50;98.00;;;;;;6246283;23;20083;-79
2021/11/04 04:41:03;;;;;;;7.05;4.28;;;3.50;98.00;;;;;;6244899;23;20028;-78
2021/11/04 04:43:29;;;;;;;6.57;4.13;;;3.50;98.00;;;;;;6247985;23;20000;-77
2021/11/04 04:45:55;;;;;;;5.45;3.25;;;3.60;98.00;;;;;;6246295;23;20004;-78
2021/11/04 04:48:21;;;;;;;5.22;3.17;;;3.60;98.00;;;;;;6246057;23;20067;-78
2021/11/04 04:50:47;;;;;;;4.95;2.72;;;3.60;98.00;;;;;;6245150;23;20012;-78
2021/11/04 04:53:13;;;;;;;4.50;2.80;;;3.70;98.00;;;;;;6246099;23;20270;-78
2021/11/04 04:55:38;;;;;;;5.47;3.42;;;3.70;98.00;;;;;;6217663;23;20000;-78
2021/11/04 04:58:06;;;;;;;5.43;3.00;;;3.70;98.00;;;;;;6245810;23;20078;-78
2021/11/04 05:00:35;;;;;;;4.93;2.88;;;3.70;98.00;;;;;;6245459;23;20055;-77
2021/11/04 05:03:01;;;;;;;6.10;3.30;;;3.70;98.00;;;;;;6219431;23;20011;-78
2021/11/04 05:05:27;;;;;;;5.75;3.67;;;3.70;98.00;;;;;;6245163;23;20007;-78
2021/11/04 05:07:52;;;;;;;6.15;3.58;;;3.70;98.00;;;;;;6245840;23;20008;-78
2021/11/04 05:10:18;;;;;;;5.93;3.15;;;3.70;98.00;;;;;;6245201;23;20234;-78
2021/11/04 05:12:44;;;;;;;4.90;2.85;;;3.80;98.00;;;;;;6246252;23;20004;-78
2021/11/04 05:15:11;;;;;;;5.38;3.20;;;3.80;98.00;;;;;;6219768;23;20004;-78
2021/11/04 05:17:37;;;;;;;6.57;3.95;;;3.90;98.00;;;;;;6247167;23;20381;-79
2021/11/04 05:20:07;;;;;;;7.80;4.72;;;3.90;98.00;;;;;;6220051;23;20386;-77
2021/11/04 05:22:32;;;;;;;5.18;2.92;;;3.90;98.00;;;;;;6246178;23;20008;-79
2021/11/04 05:24:58;;;;;;;5.07;2.88;;;3.90;98.00;;;;;;6219014;23;20061;-78
2021/11/04 05:27:25;;;;;;;4.78;2.97;;;4.00;98.00;;;;;;6217319;23;20074;-78
2021/11/04 05:29:51;;;;;;;5.78;3.08;;;4.00;98.00;;;;;;6244922;23;20629;-78
2021/11/04 05:32:18;;;;;;;5.45;3.63;;;4.00;98.00;;;;;;6244996;23;20005;-78
2021/11/04 05:34:44;;;;;;;5.38;3.47;;;4.00;98.00;;;;;;6247810;23;20000;-78
2021/11/04 05:37:10;;;;;;;5.95;3.33;;;4.00;98.00;;;;;;6246042;23;20072;-80
2021/11/04 05:39:36;;;;;;;5.90;3.78;;;4.00;98.00;;;;;;6220290;23;20028;-78
2021/11/04 05:42:03;;;;;;;4.90;2.85;;;4.00;98.00;;;;;;6246752;23;19996;-78
2021/11/04 05:44:29;;;;;;;4.35;2.60;;;4.00;98.00;;;;;;6248448;23;19997;-78
2021/11/04 05:46:55;;;;;;;5.55;3.30;;;3.90;98.00;;;;;;6248090;23;20058;-78
2021/11/04 05:49:21;;;;;;;4.63;2.80;;;4.00;98.00;;;;;;6247597;23;20000;-78
2021/11/04 05:51:47;;;;;;;8.75;3.67;;;4.00;98.00;;;;;;6248557;23;20000;-77
2021/11/04 05:54:13;;;;;;;5.00;3.58;;;4.00;98.00;;;;;;6248364;23;20033;-77
2021/11/04 05:56:38;;;;;;;5.20;3.20;;;4.00;98.00;;;;;;6245979;23;20000;-77
2021/11/04 05:59:04;;;;;;;5.13;3.40;;;4.00;98.00;;;;;;6248185;23;20000;-77
2021/11/04 06:01:30;;;;;;;5.93;3.67;;;4.00;98.00;;;;;;6247619;23;20000;-76
2021/11/04 06:03:55;;;;;;;6.05;3.75;;;4.00;98.00;;;;;;6247061;23;20004;-77
2021/11/04 06:06:21;;;;;;;6.10;3.80;;;4.00;98.00;;;;;;6247377;23;20011;-78
2021/11/04 06:08:47;;;;;;;6.40;3.92;;;4.00;98.00;;;;;;6247471;23;20038;-78
2021/11/04 06:11:12;;;;;;;5.93;3.65;;;4.00;98.00;;;;;;6246292;23;20001;-77
2021/11/04 06:13:38;;;;;;;5.50;3.70;;;4.00;98.00;;;;;;6247734;23;20004;-78
2021/11/04 06:16:04;;;;;;;6.10;3.67;;;4.00;98.00;;;;;;6220425;23;20270;-78
2021/11/04 06:18:30;;;;;;;5.25;3.38;;;4.00;98.00;;;;;;6247040;23;20000;-78
2021/11/04 06:20:56;;;;;;;6.85;4.18;;;4.00;98.00;;;;;;6248058;23;20404;-78
2021/11/04 06:23:21;;;;;;;6.10;3.83;;;4.00;98.00;;;;;;6220316;23;20012;-78
2021/11/04 06:25:47;;;;;;;5.97;3.90;;;4.00;98.00;;;;;;6246730;23;20026;-78
2021/11/04 06:28:16;;;;;;;5.75;3.63;;;4.00;98.00;;;;;;6248080;23;19996;-78
2021/11/04 06:30:41;;;;;;;6.38;4.05;;;4.00;98.00;;;;;;6247955;22;20000;-78
2021/11/04 06:33:07;;;;;;;6.53;4.18;;;4.00;98.00;;;;;;6246977;23;20632;-79
2021/11/04 06:35:33;;;;;;;6.00;4.03;;;4.00;98.00;;;;;;6222484;23;20062;-78
2021/11/04 06:37:58;;;;;;;7.40;4.18;;;4.00;98.00;;;;;;6250256;23;20440;-78
2021/11/04 06:40:26;;;;;;;5.57;3.60;;;4.00;98.00;;;;;;6246686;23;20130;-76
2021/11/04 06:42:55;;;;;;;6.32;3.75;;;3.90;98.00;;;;;;6247339;23;20011;-79
2021/11/04 06:45:21;;;;;;;6.20;3.85;;;3.90;98.00;;;;;;6219836;23;20008;-77
2021/11/04 06:47:51;;;;;;;5.47;3.75;;;3.90;98.00;;;;;;6219858;23;20008;-77
2021/11/04 06:50:19;;;;;;;5.97;3.70;;;3.90;98.00;;;;;;6247567;23;20031;-77
2021/11/04 06:52:50;;;;;;;6.80;4.13;;;3.90;98.00;;;;;;6247283;23;20007;-78
2021/11/04 06:55:17;;;;;;;7.93;4.68;;;3.90;98.00;;;;;;6246125;23;20366;-77
2021/11/04 06:57:44;;;;;;;7.05;4.45;;;3.90;98.00;;;;;;6247051;23;20012;-78
2021/11/04 07:00:13;;;;;;;6.75;4.30;;;3.90;98.00;;;;;;6222603;23;20058;-78
2021/11/04 07:02:43;;;;;;;7.30;4.40;;;3.90;98.00;;;;;;6247354;23;20004;-78
2021/11/04 07:05:13;;;;;;;7.47;4.68;;;3.80;98.00;;;;;;6246839;23;20035;-78
2021/11/04 07:07:47;;;;;;;5.68;3.50;;;3.80;98.00;;;;;;6215255;23;20375;-78
2021/11/04 07:10:17;;;;;;;6.00;3.40;;;3.80;98.00;;;;;;6216923;23;20008;-76
2021/11/04 07:12:48;;;;;;;5.20;3.30;;;3.80;98.00;;;;;;6218048;23;20563;-78
2021/11/04 07:15:16;;;;;;;6.68;4.18;;;3.80;98.00;;;;;;6214632;23;20059;-78
2021/11/04 07:17:44;;;;;;;6.10;3.72;;;3.70;98.00;;;;;;6214919;23;20255;-78
2021/11/04 07:20:11;;;;;;;5.82;3.38;;;3.70;98.00;;;;;;6216101;23;20009;-78
2021/11/04 07:22:39;;;;;;;7.43;3.97;;;3.70;98.00;;;;;;6215972;23;20009;-78
2021/11/04 07:25:13;;;;;;;7.00;3.90;;;3.70;98.00;;;;;;6214357;23;20038;-78
2021/11/04 07:27:59;;;;;;;6.22;3.70;;;3.70;98.00;;;;;;6216536;23;20001;-78
2021/11/04 07:30:27;;;;;;;6.25;3.72;;;3.70;98.00;;;;;;6217654;23;20055;-79
2021/11/04 07:32:55;;;;;;;5.88;3.75;;;3.60;98.00;;;;;;6214268;23;20004;-79
2021/11/04 07:35:27;;;;;;;4.85;2.90;;;3.60;98.00;;;;;;6214520;23;20438;-79
2021/11/04 07:37:53;;;;;;;6.43;3.42;;;3.60;98.00;;;;;;6219349;23;20079;-78
2021/11/04 07:40:22;;;;;;;6.18;3.70;;;3.60;98.00;;;;;;6214105;23;20063;-79
2021/11/04 07:42:48;;;;;;;11.00;5.35;;;3.60;98.00;;;;;;6215981;23;20008;-79
2021/11/04 07:45:15;;;;;;;11.25;5.55;;;3.60;98.00;;;;;;6215336;23;20012;-80
2021/11/04 07:47:43;;;;;;;10.02;5.22;;;3.60;98.00;;;;;;6216808;23;20008;-80
2021/11/04 07:50:11;;;;;;;9.10;4.07;;;3.60;98.00;;;;;;6217107;23;20072;-80
2021/11/04 07:52:41;;;;;;;6.97;4.30;;;3.60;98.00;;;;;;6216237;23;19992;-80
2021/11/04 07:55:07;;;;;;;5.60;3.80;;;3.60;98.00;;;;;;6215197;23;20012;-80
2021/11/04 07:57:36;;;;;;;7.85;3.67;;;3.60;97.90;;;;;;6215695;23;20004;-79
2021/11/04 08:00:10;;;;;;;6.50;3.90;;;3.60;97.90;;;;;;6216479;23;20001;-80
2021/11/04 08:02:41;;;;;;;6.53;3.83;;;3.60;97.60;;;;;;6215729;23;20005;-80
2021/11/04 08:05:11;;;;;;;6.93;4.78;;;3.70;97.70;;;;;;6214447;23;20012;-80
2021/11/04 08:07:38;;;;;;;6.60;4.38;;;3.70;97.60;;;;;;6215263;23;20074;-80
2021/11/04 08:10:06;;;;;;;6.03;3.83;;;3.70;97.70;;;;;;6216332;23;20372;-80
2021/11/04 08:12:33;;;;;;;6.63;4.10;;;3.70;97.60;;;;;;6213963;23;20028;-80
2021/11/04 08:14:59;;;;;;;5.55;3.53;;;3.70;97.50;;;;;;6214861;23;20331;-80
2021/11/04 08:17:25;;;;;;;5.72;3.83;;;3.70;97.20;;;;;;6216898;23;20004;-80
2021/11/04 08:19:51;;;;;;;6.15;4.07;;;3.70;97.50;;;;;;6216351;23;20095;-80
2021/11/04 08:22:17;;;;;;;5.10;3.20;;;3.70;97.80;;;;;;6215748;23;20007;-79
2021/11/04 08:24:43;;;;;;;4.68;2.90;;;3.70;98.00;;;;;;6215673;23;20288;-80
2021/11/04 08:27:09;;;;;;;7.20;3.70;;;3.70;98.00;;;;;;6214962;23;20075;-80
2021/11/04 08:29:34;;;;;;;6.28;4.15;;;3.70;98.00;;;;;;6215846;23;20047;-80
2021/11/04 08:32:00;;;;;;;5.30;3.03;;;3.70;97.80;;;;;;6214131;23;20005;-80
2021/11/04 08:34:26;;;;;;;7.65;3.90;;;3.70;98.00;;;;;;6214824;23;20004;-79
2021/11/04 08:36:51;;;;;;;9.43;3.80;;;3.70;97.80;;;;;;6216430;23;20000;-80
2021/11/04 08:39:17;;;;;;;4.93;2.85;;;3.70;98.00;;;;;;6217800;23;20309;-81
2021/11/04 08:41:43;;;;;;;6.07;3.38;;;3.60;98.00;;;;;;6216357;23;20004;-79
2021/11/04 08:44:08;;;;;;;5.35;3.20;;;3.70;98.00;;;;;;6215011;23;20008;-79
2021/11/04 08:46:35;;;;;;;6.13;3.25;;;3.60;98.00;;;;;;6216601;23;20004;-79
2021/11/04 08:49:04;;;;;;;8.93;4.40;;;3.60;98.00;;;;;;6215895;23;20005;-78
2021/11/04 08:51:31;;;;;;;8.27;3.80;;;3.60;97.50;;;;;;6215182;23;20072;-78
2021/11/04 08:53:59;;;;;;;6.60;3.60;;;3.70;97.70;;;;;;6216270;23;20025;-79
2021/11/04 08:56:25;;;;;;;5.80;3.45;;;3.70;97.30;;;;;;6213862;23;20000;-78
2021/11/04 08:58:50;;;;;;;4.95;3.15;;;3.70;97.70;;;;;;6214916;23;20012;-81
2021/11/04 09:01:20;;;;;;;6.15;3.70;;;3.70;97.60;;;;;;6190024;23;20050;-80
2021/11/04 09:03:46;;;;;;;6.95;3.70;;;3.60;98.00;;;;;;6216298;23;20008;-80
2021/11/04 09:06:11;;;;;;;5.25;3.13;;;3.70;97.20;;;;;;6226883;22;20020;-81
2021/11/04 09:08:37;;;;;;;4.45;2.78;;;3.70;97.20;;;;;;6245525;23;20051;-81
2021/11/04 09:11:03;;;;;;;4.10;2.35;;;3.70;97.50;;;;;;6218875;23;20004;-80
2021/11/04 09:13:28;;;;;;;6.20;3.10;;;3.70;97.30;;;;;;6219791;23;20007;-80
2021/11/04 09:15:54;;;;;;;3.83;2.60;;;3.70;97.40;;;;;;6246230;23;20003;-80
2021/11/04 09:18:20;;;;;;;3.58;2.00;;;3.70;98.00;;;;;;6246122;23;20407;-81
2021/11/04 09:20:46;;;;;;;3.78;2.03;;;3.70;98.00;;;;;;6245398;23;20008;-81
2021/11/04 09:23:12;;;;;;;4.32;2.30;;;3.70;98.00;;;;;;6245661;23;20064;-80
2021/11/04 09:25:38;;;;;;;3.53;2.20;;;3.60;98.00;;;;;;6244265;23;20004;-81
2021/11/04 09:28:04;;;;;;;4.05;2.50;;;3.70;97.90;;;;;;6245434;23;20011;-80
2021/11/04 09:30:30;;;;;;;5.20;2.78;;;3.70;97.50;;;;;;6218875;23;20004;-81
2021/11/04 09:32:56;;;;;;;4.57;2.70;;;3.60;98.00;;;;;;6245312;23;20039;-81
2021/11/04 09:35:23;;;;;;;5.68;3.17;;;3.60;98.00;;;;;;6248607;23;20437;-81
2021/11/04 09:37:49;;;;;;;4.95;2.75;;;3.60;98.00;;;;;;6247960;23;20015;-80
2021/11/04 09:40:17;;;;;;;4.68;2.90;;;3.60;97.90;;;;;;6217725;23;20369;-80
2021/11/04 09:42:47;;;;;;;4.38;2.60;;;3.70;97.60;;;;;;6221219;23;20267;-81
2021/11/04 09:45:13;;;;;;;5.95;2.80;;;3.70;97.90;;;;;;6220335;23;20012;-80
2021/11/04 09:47:40;;;;;;;6.57;3.25;;;3.70;98.00;;;;;;6219018;23;20038;-81
2021/11/04 09:50:12;;;;;;;5.45;3.10;;;3.70;98.00;;;;;;6246192;23;20005;-81
2021/11/04 09:52:40;;;;;;;4.90;2.70;;;3.80;98.00;;;;;;6219179;23;20397;-80
2021/11/04 09:55:10;;;;;;;5.15;3.30;;;3.80;98.00;;;;;;6246428;23;20011;-80
2021/11/04 09:57:39;;;;;;;4.40;2.80;;;3.90;97.70;;;;;;6246411;23;20247;-80
2021/11/04 10:00:05;;;;;;;5.00;3.08;;;3.90;98.00;;;;;;6221306;23;20008;-79
2021/11/04 10:02:31;;;;;;;6.18;3.97;;;3.90;97.90;;;;;;6247474;23;20269;-80
2021/11/04 10:05:05;;;;;;;5.25;3.08;;;3.90;97.90;;;;;;6221375;23;20028;-80
2021/11/04 10:07:48;;;;;;;4.15;2.33;;;3.90;98.00;;;;;;6247482;23;20083;-80
2021/11/04 10:10:19;;;;;;;5.22;3.03;;;3.90;98.00;;;;;;6247123;23;20020;-80
2021/11/04 10:12:56;;;;;;;5.20;2.80;;;3.80;98.00;;;;;;6221163;23;20401;-80
2021/11/04 10:15:22;;;;;;;4.75;3.05;;;3.80;98.00;;;;;;6248952;23;20009;-80
2021/11/04 10:17:48;;;;;;;5.32;3.20;;;3.80;98.00;;;;;;6248200;23;20028;-81
2021/11/04 10:20:23;;;;;;;8.13;4.05;;;3.80;98.00;;;;;;6221630;23;20012;-81
2021/11/04 10:23:02;;;;;;;6.78;3.80;;;3.80;98.00;;;;;;6247837;23;20024;-81
2021/11/04 10:25:28;;;;;;;5.43;3.35;;;3.80;98.00;;;;;;6220398;23;20111;-81
2021/11/04 10:27:58;;;;;;;5.80;2.95;;;3.80;98.00;;;;;;6223356;23;20027;-80
2021/11/04 10:30:43;;;;;;;5.03;2.47;;;3.90;98.00;;;;;;6221846;23;20014;-80
2021/11/04 10:33:30;;;;;;;4.00;2.20;;;3.80;98.00;;;;;;6221994;23;20014;-79
2021/11/04 10:35:58;;;;;;;5.53;3.05;;;3.90;98.00;;;;;;6222727;23;20309;-80
2021/11/04 10:38:52;;;;;;;6.13;3.67;;;3.90;98.00;;;;;;6222085;23;20317;-79
2021/11/04 10:41:38;;;;;;;12.02;6.60;;;3.80;98.00;;;;;;6241937;23;20301;-79
2021/11/04 10:44:18;;;;;;;7.68;4.55;;;3.90;98.00;;;;;;6249768;23;20027;-78
2021/11/04 10:46:50;;;;;;;5.53;3.25;;;3.90;98.00;;;;;;6250353;23;20065;-79
2021/11/04 10:49:18;;;;;;;6.07;3.70;;;3.90;98.00;;;;;;6223125;23;20040;-79
2021/11/04 10:51:47;;;;;;;4.28;2.47;;;3.90;98.00;;;;;;6248792;23;20020;-79
2021/11/04 10:54:16;;;;;;;5.28;2.75;;;3.90;98.00;;;;;;6222410;23;20259;-78
2021/11/04 10:56:44;;;;;;;5.25;3.03;;;3.90;98.00;;;;;;6221603;23;20000;-79
2021/11/04 10:59:16;;;;;;;5.57;3.15;;;3.90;98.00;;;;;;6223366;23;20004;-79
2021/11/04 11:01:53;;;;;;;5.03;2.70;;;3.90;98.00;;;;;;6249242;23;20010;-77
2021/11/04 11:04:25;;;;;;;6.78;3.00;;;3.90;98.00;;;;;;6249264;23;20008;-78
2021/11/04 11:06:56;;;;;;;6.68;3.70;;;3.90;98.00;;;;;;6249592;23;20008;-79
2021/11/04 11:09:31;;;;;;;5.93;3.15;;;4.00;98.00;;;;;;6249485;23;20075;-79
2021/11/04 11:12:05;;;;;;;6.15;3.42;;;4.00;98.00;;;;;;6247995;23;19996;-79
2021/11/04 11:14:37;;;;;;;6.57;4.00;;;4.00;98.00;;;;;;6222982;23;20028;-79
2021/11/04 11:17:04;;;;;;;7.13;4.18;;;4.00;98.00;;;;;;6222729;23;20058;-80
2021/11/04 11:19:38;;;;;;;8.02;5.05;;;4.00;98.00;;;;;;6248892;23;20366;-81
2021/11/04 11:22:06;;;;;;;6.82;3.95;;;4.00;98.00;;;;;;6222664;23;20011;-80
2021/11/04 11:24:42;;;;;;;9.02;4.30;;;4.10;98.00;;;;;;6249396;23;20004;-79
2021/11/04 11:27:10;;;;;;;6.20;3.78;;;4.00;98.00;;;;;;6220929;23;20035;-79
2021/11/04 11:29:39;;;;;;;6.65;4.30;;;4.10;98.00;;;;;;6249469;23;20007;-80
2021/11/04 11:32:22;;;;;;;7.18;3.92;;;4.10;98.00;;;;;;6249622;23;20000;-80
2021/11/04 11:34:50;;;;;;;8.25;4.78;;;4.10;98.00;;;;;;6249395;23;20239;-78
2021/11/04 11:37:18;;;;;;;7.93;4.40;;;4.10;98.00;;;;;;6222381;23;20019;-80
2021/11/04 11:39:53;;;;;;;8.23;4.68;;;4.20;98.00;;;;;;6222654;23;20083;-80
2021/11/04 11:42:23;;;;;;;9.05;4.82;;;4.20;98.00;;;;;;6221130;23;20030;-79
2021/11/04 11:44:59;;;;;;;7.65;4.50;;;4.20;98.00;;;;;;6249402;23;20007;-78
2021/11/04 11:47:37;;;;;;;7.00;4.60;;;4.30;98.00;;;;;;6222536;23;20709;-79
2021/11/04 11:50:26;;;;;;;6.93;4.25;;;4.30;98.00;;;;;;6222979;23;20405;-79
2021/11/04 11:52:56;;;;;;;7.85;4.82;;;4.30;98.00;;;;;;6249671;23;20267;-80
2021/11/04 11:55:23;;;;;;;7.47;4.65;;;4.30;98.00;;;;;;6221245;23;20008;-79
2021/11/04 11:58:15;;;;;;;6.57;4.30;;;4.30;98.00;;;;;;6222465;23;20008;-79
2021/11/04 12:00:54;;;;;;;7.22;4.43;;;4.40;98.00;;;;;;6248562;23;20000;-79
2021/11/04 12:03:32;;;;;;;6.93;4.18;;;4.40;98.00;;;;;;6248999;23;20011;-78
2021/11/04 12:06:01;;;;;;;7.90;4.95;;;4.50;98.00;;;;;;6248884;23;20078;-79
2021/11/04 12:08:27;;;;;;;7.82;5.05;;;4.50;98.00;;;;;;6222165;23;20095;-79
2021/11/04 12:10:52;;;;;;;9.05;6.22;;;4.50;98.00;;;;;;6247757;23;20027;-79
2021/11/04 12:13:45;;;;;;;8.70;4.80;;;4.50;98.00;;;;;;6248572;23;20001;-79
2021/11/04 12:16:16;;;;;;;9.70;6.35;;;4.60;98.00;;;;;;6249076;23;20076;-79
2021/11/04 12:19:01;;;;;;;10.82;6.45;;;4.60;98.00;;;;;;6221605;23;20050;-79
2021/11/04 12:21:33;;;;;;;8.63;5.90;;;4.70;98.00;;;;;;6249050;23;20007;-80
2021/11/04 12:24:03;;;;;;;9.45;6.03;;;4.80;98.00;;;;;;6221351;23;20432;-80
2021/11/04 12:26:35;;;;;;;11.18;7.72;;;4.80;98.00;;;;;;6246463;23;20295;-79
2021/11/04 12:29:08;;;;;;;10.25;6.90;;;4.80;98.00;;;;;;6222239;23;20007;-79
2021/11/04 12:31:38;;;;;;;12.45;7.03;;;4.90;98.00;;;;;;6222067;23;20266;-79
2021/11/04 12:34:04;;;;;;;9.65;6.30;;;4.90;98.00;;;;;;6221984;23;20004;-79
2021/11/04 12:36:49;;;;;;;10.20;6.82;;;4.90;98.00;;;;;;6248819;23;20329;-78
2021/11/04 12:39:31;;;;;;;13.02;7.50;;;4.90;98.00;;;;;;6221699;23;20008;-78
2021/11/04 12:41:59;;;;;;;9.98;7.00;;;5.00;98.00;;;;;;6247135;23;20015;-78
2021/11/04 12:44:27;;;;;;;11.75;7.68;;;5.10;98.00;;;;;;6248871;23;20000;-79
2021/11/04 12:46:53;;;;;;;12.32;7.57;;;5.20;98.00;;;;;;6248543;23;20019;-79
2021/11/04 12:49:26;;;;;;;13.13;9.70;;;5.20;98.00;;;;;;6248416;23;20008;-79
2021/11/04 12:51:54;;;;;;;11.63;7.95;;;5.30;98.00;;;;;;6221815;23;20239;-78
2021/11/04 12:54:29;;;;;;;13.50;8.95;;;5.50;98.00;;;;;;6221259;23;20008;-78
2021/11/04 12:56:59;;;;;;;14.52;10.25;;;5.60;98.00;;;;;;6220864;23;20004;-78
2021/11/04 12:59:48;;;;;;;11.90;8.40;;;5.70;98.00;;;;;;6248802;23;20004;-78
2021/11/04 13:02:20;;;;;;;13.63;8.85;;;5.70;98.00;;;;;;6221772;23;20389;-78